createdAt,value
2023-02-24T00:00:53.515Z,44.50
2023-02-24T00:03:26.907Z,46.30
2023-02-24T00:06:03.993Z,44.30
2023-02-24T00:08:37.751Z,44.20
2023-02-24T00:11:17.352Z,46.70
2023-02-24T00:13:51.311Z,48.60
2023-02-24T00:16:27.562Z,45.20
2023-02-24T00:19:02.264Z,45.60
2023-02-24T00:21:36.507Z,43.30
2023-02-24T00:24:11.233Z,47.00
2023-02-24T00:26:45.973Z,41.30
2023-02-24T00:29:19.858Z,43.60
2023-02-24T00:31:59.872Z,40.60
2023-02-24T00:34:35.960Z,41.70
2023-02-24T00:37:09.888Z,42.30
2023-02-24T00:39:45.190Z,43.90
2023-02-24T00:42:19.194Z,46.30
2023-02-24T00:44:54.362Z,45.50
2023-02-24T00:47:28.495Z,50.50
2023-02-24T00:50:02.459Z,41.20
2023-02-24T00:52:37.248Z,44.80
2023-02-24T00:55:15.872Z,40.10
2023-02-24T00:57:51.024Z,44.50
2023-02-24T01:00:26.531Z,39.70
2023-02-24T01:03:00.743Z,42.00
2023-02-24T01:05:37.049Z,38.90
2023-02-24T01:08:10.702Z,44.60
2023-02-24T01:11:04.828Z,43.70
2023-02-24T01:13:39.546Z,42.30
2023-02-24T01:16:14.984Z,47.70
2023-02-24T01:18:49.574Z,45.90
2023-02-24T01:21:24.281Z,42.60
2023-02-24T01:23:59.162Z,45.90
2023-02-24T01:26:32.828Z,41.90
2023-02-24T01:29:10.427Z,42.10
2023-02-24T01:31:47.274Z,44.30
2023-02-24T01:34:22.679Z,45.80
2023-02-24T01:36:56.793Z,44.50
2023-02-24T01:39:30.668Z,49.40
2023-02-24T01:42:06.463Z,47.00
2023-02-24T01:45:16.582Z,46.60
2023-02-24T01:47:51.090Z,42.00
2023-02-24T01:50:26.868Z,42.40
2023-02-24T01:53:04.533Z,42.60
2023-02-24T01:55:43.781Z,40.60
2023-02-24T01:58:26.075Z,47.00
2023-02-24T02:01:09.095Z,48.20
2023-02-24T02:03:46.359Z,49.60
2023-02-24T02:06:19.989Z,48.50
2023-02-24T02:08:54.248Z,42.80
2023-02-24T02:11:28.645Z,45.10
2023-02-24T02:14:02.537Z,43.80
2023-02-24T02:16:57.325Z,46.40
2023-02-24T02:20:16.575Z,45.10
2023-02-24T02:23:28.176Z,42.30
2023-02-24T02:26:33.980Z,43.10
2023-02-24T02:29:32.175Z,44.50
2023-02-24T02:32:38.646Z,45.50
2023-02-24T02:35:19.604Z,47.10
2023-02-24T02:37:57.898Z,44.30
2023-02-24T02:40:41.992Z,48.10
2023-02-24T02:43:25.052Z,44.00
2023-02-24T02:46:04.043Z,41.20
2023-02-24T02:48:41.665Z,45.00
2023-02-24T02:51:20.559Z,45.40
2023-02-24T02:54:03.573Z,44.40
2023-02-24T02:56:42.663Z,46.10
2023-02-24T02:59:23.633Z,43.20
2023-02-24T03:02:11.962Z,42.20
2023-02-24T03:04:51.958Z,49.50
2023-02-24T03:07:31.950Z,44.20
2023-02-24T03:10:29.061Z,47.70
2023-02-24T03:13:23.877Z,42.40
2023-02-24T03:16:00.366Z,44.60
2023-02-24T03:18:37.631Z,47.20
2023-02-24T03:21:15.240Z,50.70
2023-02-24T03:23:53.217Z,45.20
2023-02-24T03:26:32.074Z,50.80
2023-02-24T03:29:18.274Z,45.00
2023-02-24T03:31:55.500Z,48.20
2023-02-24T03:34:41.024Z,48.00
2023-02-24T03:37:15.745Z,49.60
2023-02-24T03:39:53.590Z,48.50
2023-02-24T03:42:33.007Z,52.30
2023-02-24T03:45:10.234Z,53.80
2023-02-24T03:47:45.885Z,51.20
2023-02-24T03:50:22.272Z,45.60
2023-02-24T03:53:10.024Z,49.00
2023-02-24T03:56:01.018Z,50.70
2023-02-24T03:58:53.383Z,54.10
2023-02-24T04:01:36.813Z,51.90
2023-02-24T04:04:16.760Z,59.50
2023-02-24T04:07:10.134Z,49.10
2023-02-24T04:09:53.275Z,53.20
2023-02-24T04:12:34.400Z,56.70
2023-02-24T04:15:17.089Z,48.60
2023-02-24T04:17:55.806Z,50.20
2023-02-24T04:20:33.013Z,50.50
2023-02-24T04:23:12.658Z,56.70
2023-02-24T04:25:50.131Z,55.40
2023-02-24T04:28:25.799Z,54.10
2023-02-24T04:31:07.298Z,57.10
2023-02-24T04:33:42.232Z,52.10
2023-02-24T04:36:16.979Z,53.50
2023-02-24T04:38:50.802Z,56.00
2023-02-24T04:41:24.980Z,55.70
2023-02-24T04:43:58.974Z,57.80
2023-02-24T04:46:33.225Z,56.70
2023-02-24T04:49:07.247Z,57.10
2023-02-24T04:51:43.532Z,59.90
2023-02-24T04:54:19.202Z,54.10
2023-02-24T04:56:54.385Z,58.30
2023-02-24T04:59:28.759Z,54.90
2023-02-24T05:02:03.706Z,54.00
2023-02-24T05:04:39.828Z,57.60
2023-02-24T05:07:16.318Z,53.00
2023-02-24T05:09:50.352Z,52.70
2023-02-24T05:12:24.234Z,54.90
2023-02-24T05:15:01.530Z,56.20
2023-02-24T05:17:35.716Z,56.40
2023-02-24T05:20:30.108Z,60.60
2023-02-24T05:23:03.607Z,59.60
2023-02-24T05:25:38.096Z,55.70
2023-02-24T05:28:11.899Z,54.90
2023-02-24T05:30:45.378Z,53.20
2023-02-24T05:33:21.863Z,56.10
2023-02-24T05:35:56.611Z,54.90
2023-02-24T05:38:30.944Z,52.30
2023-02-24T05:41:15.424Z,52.60
2023-02-24T05:43:53.693Z,57.70
2023-02-24T05:46:29.662Z,56.70
2023-02-24T05:49:09.460Z,56.20
2023-02-24T05:51:55.328Z,56.30
2023-02-24T05:54:30.827Z,56.90
2023-02-24T05:57:06.641Z,55.10
2023-02-24T05:59:40.614Z,58.30
2023-02-24T06:02:16.263Z,58.20
2023-02-24T06:04:54.351Z,55.10
2023-02-24T06:07:29.977Z,53.20
2023-02-24T06:10:10.184Z,56.30
2023-02-24T06:12:44.077Z,59.80
2023-02-24T06:15:18.196Z,55.40
2023-02-24T06:17:51.888Z,52.10
2023-02-24T06:20:27.326Z,51.50
2023-02-24T06:23:02.448Z,50.40
2023-02-24T06:25:38.877Z,61.30
2023-02-24T06:28:12.471Z,53.90
2023-02-24T06:30:46.233Z,56.00
2023-02-24T06:33:20.270Z,50.30
2023-02-24T06:35:54.034Z,51.20
2023-02-24T06:38:28.102Z,55.90
2023-02-24T06:41:04.507Z,53.00
2023-02-24T06:43:39.453Z,41.30
2023-02-24T06:46:15.692Z,44.90
2023-02-24T06:48:49.273Z,51.40
2023-02-24T06:51:23.533Z,51.40
2023-02-24T06:53:57.074Z,48.50
2023-02-24T06:56:32.541Z,45.80
2023-02-24T06:59:07.279Z,47.00
2023-02-24T07:01:45.589Z,46.30
2023-02-24T07:04:21.299Z,42.80
2023-02-24T07:06:57.444Z,45.50
2023-02-24T07:09:31.477Z,46.00
2023-02-24T07:12:08.539Z,47.70
2023-02-24T07:14:42.706Z,52.00
2023-02-24T07:17:19.374Z,45.50
2023-02-24T07:19:54.913Z,46.70
2023-02-24T07:22:28.657Z,42.90
2023-02-24T07:25:02.642Z,44.60
2023-02-24T07:27:37.149Z,41.10
2023-02-24T07:30:13.166Z,46.60
2023-02-24T07:32:48.886Z,45.50
2023-02-24T07:35:22.345Z,40.20
2023-02-24T07:38:02.471Z,37.80
2023-02-24T07:40:36.766Z,43.60
2023-02-24T07:43:11.380Z,41.10
2023-02-24T07:45:44.818Z,38.40
2023-02-24T07:48:18.445Z,38.70
2023-02-24T07:50:53.377Z,40.00
2023-02-24T07:53:28.209Z,41.60
2023-02-24T07:56:03.812Z,40.10
2023-02-24T07:58:37.442Z,38.20
2023-02-24T08:01:23.466Z,36.50
2023-02-24T08:04:01.614Z,39.10
2023-02-24T08:06:40.223Z,40.50
2023-02-24T08:11:54.510Z,43.30
2023-02-24T08:14:33.157Z,42.40
2023-02-24T08:17:07.251Z,43.30
2023-02-24T08:19:41.204Z,43.50
2023-02-24T08:22:24.543Z,41.20
2023-02-24T08:25:01.006Z,42.40
2023-02-24T08:27:39.678Z,45.50
2023-02-24T08:32:58.873Z,37.30
2023-02-24T08:35:36.584Z,37.30
2023-02-24T08:38:15.500Z,39.70
2023-02-24T08:43:34.690Z,35.70
2023-02-24T08:46:19.099Z,38.30
2023-02-24T08:48:56.080Z,38.10
2023-02-24T08:51:35.269Z,36.90
2023-02-24T08:54:15.817Z,35.60
2023-02-24T08:56:56.608Z,36.50
2023-02-24T08:59:38.479Z,34.80
2023-02-24T09:02:24.624Z,39.60
2023-02-24T09:05:01.007Z,36.10
2023-02-24T09:07:37.505Z,34.80
2023-02-24T09:10:18.230Z,32.60
2023-02-24T09:12:54.378Z,34.00
2023-02-24T09:15:41.932Z,34.50
2023-02-24T09:18:16.188Z,35.30
2023-02-24T09:21:16.508Z,36.40
2023-02-24T09:23:50.678Z,30.90
2023-02-24T09:26:24.876Z,33.50
2023-02-24T09:28:59.043Z,31.20
2023-02-24T09:31:55.881Z,32.30
2023-02-24T09:34:30.428Z,30.40
2023-02-24T09:37:04.637Z,31.30
2023-02-24T09:39:52.887Z,27.50
2023-02-24T09:42:35.464Z,26.80
2023-02-24T09:45:19.689Z,29.60
2023-02-24T09:47:58.576Z,27.60
2023-02-24T09:51:02.002Z,30.70
2023-02-24T09:53:49.718Z,26.50
2023-02-24T09:56:37.745Z,28.20
2023-02-24T09:59:26.686Z,29.90
2023-02-24T10:02:20.705Z,27.10
2023-02-24T10:05:07.732Z,36.80
2023-02-24T10:07:44.632Z,25.90
2023-02-24T10:10:28.794Z,26.80
2023-02-24T10:13:16.175Z,29.30
2023-02-24T10:16:06.302Z,25.40
2023-02-24T10:18:48.725Z,26.40
2023-02-24T10:21:48.567Z,24.10
2023-02-24T10:24:31.071Z,25.60
2023-02-24T10:27:16.846Z,22.90
2023-02-24T10:30:05.565Z,22.70
2023-02-24T10:32:48.963Z,22.10
2023-02-24T10:35:26.241Z,17.60
2023-02-24T10:38:05.790Z,17.60
2023-02-24T10:40:56.988Z,20.70
2023-02-24T10:43:35.223Z,19.40
2023-02-24T10:46:18.733Z,15.80
2023-02-24T10:49:02.972Z,16.30
2023-02-24T10:51:41.638Z,15.90
2023-02-24T10:54:34.680Z,16.30
2023-02-24T10:57:16.059Z,17.40
2023-02-24T11:00:15.493Z,17.90
2023-02-24T11:03:10.942Z,18.60
2023-02-24T11:06:07.255Z,20.10
2023-02-24T11:08:55.097Z,19.80
2023-02-24T11:11:56.445Z,18.20
2023-02-24T11:14:43.806Z,17.10
2023-02-24T11:17:27.454Z,17.70
2023-02-24T11:20:11.337Z,17.50
2023-02-24T11:22:49.529Z,17.30
2023-02-24T11:25:26.934Z,18.40
2023-02-24T11:28:01.294Z,16.30
2023-02-24T11:30:43.769Z,16.60
2023-02-24T11:33:29.349Z,16.60
2023-02-24T11:36:13.138Z,19.10
2023-02-24T11:39:02.821Z,20.70
2023-02-24T11:41:45.960Z,18.50
2023-02-24T11:44:28.622Z,15.90
2023-02-24T11:47:07.675Z,21.60
2023-02-24T11:49:46.590Z,24.60
2023-02-24T11:52:27.840Z,22.50
2023-02-24T11:55:05.765Z,23.40
2023-02-24T11:57:46.090Z,23.80
2023-02-24T12:00:23.610Z,17.40
2023-02-24T12:03:04.266Z,19.10
2023-02-24T12:05:41.265Z,17.90
2023-02-24T12:08:25.989Z,20.70
2023-02-24T12:11:06.444Z,19.30
2023-02-24T12:13:47.743Z,19.00
2023-02-24T12:16:25.502Z,19.60
2023-02-24T12:19:07.130Z,18.50
2023-02-24T12:21:46.194Z,19.50
2023-02-24T12:24:21.566Z,21.00
2023-02-24T12:27:06.739Z,18.30
2023-02-24T12:30:06.924Z,16.50
2023-02-24T12:32:56.521Z,19.20
2023-02-24T12:35:41.046Z,18.20
2023-02-24T12:38:33.927Z,17.80
2023-02-24T12:41:26.813Z,19.50
2023-02-24T12:44:09.933Z,20.40
2023-02-24T12:46:45.636Z,20.10
2023-02-24T12:49:38.471Z,20.30
2023-02-24T12:52:22.233Z,15.60
2023-02-24T12:55:02.961Z,17.10
2023-02-24T12:57:47.741Z,17.20
2023-02-24T13:00:30.550Z,18.30
2023-02-24T13:03:21.256Z,19.40
2023-02-24T13:06:05.131Z,17.50
2023-02-24T13:08:50.777Z,20.30
2023-02-24T13:11:37.136Z,19.20
2023-02-24T13:14:20.666Z,17.50
2023-02-24T13:17:05.571Z,17.80
2023-02-24T13:19:40.401Z,18.50
2023-02-24T13:22:32.602Z,17.10
2023-02-24T13:25:23.940Z,18.10
2023-02-24T13:28:03.164Z,19.60
2023-02-24T13:30:47.651Z,19.80
2023-02-24T13:33:31.282Z,19.30
2023-02-24T13:36:20.954Z,18.50
2023-02-24T13:39:07.041Z,20.90
2023-02-24T13:41:42.749Z,21.20
2023-02-24T13:44:28.632Z,18.70
2023-02-24T13:47:31.249Z,21.40
2023-02-24T13:50:22.046Z,19.90
2023-02-24T13:53:10.012Z,18.70
2023-02-24T13:55:58.696Z,22.30
2023-02-24T13:58:52.964Z,22.50
2023-02-24T14:01:30.617Z,19.80
2023-02-24T14:04:16.655Z,21.60
2023-02-24T14:06:54.520Z,22.10
2023-02-24T14:09:31.451Z,21.70
2023-02-24T14:12:09.712Z,20.30
2023-02-24T14:14:44.710Z,17.80
2023-02-24T14:17:29.150Z,20.80
2023-02-24T14:20:20.156Z,21.30
2023-02-24T14:22:56.210Z,18.90
2023-02-24T14:25:32.410Z,21.30
2023-02-24T14:28:06.591Z,19.60
2023-02-24T14:30:43.085Z,23.90
2023-02-24T14:33:29.355Z,21.70
2023-02-24T14:36:04.364Z,20.40
2023-02-24T14:38:40.201Z,22.20
2023-02-24T14:41:22.687Z,21.80
2023-02-24T14:43:56.892Z,21.60
2023-02-24T14:46:32.473Z,20.30
2023-02-24T14:49:06.725Z,21.90
2023-02-24T14:51:40.763Z,20.40
2023-02-24T14:54:24.452Z,21.60
2023-02-24T14:56:59.843Z,23.60
2023-02-24T14:59:40.149Z,19.90
2023-02-24T15:02:20.429Z,23.00
2023-02-24T15:04:58.636Z,20.10
2023-02-24T15:07:36.026Z,21.40
2023-02-24T15:10:21.557Z,22.80
2023-02-24T15:13:00.861Z,22.40
2023-02-24T15:15:40.234Z,23.90
2023-02-24T15:18:24.320Z,19.60
2023-02-24T15:21:06.408Z,21.60
2023-02-24T15:23:41.416Z,21.80
2023-02-24T15:26:30.005Z,20.10
2023-02-24T15:31:38.123Z,21.10
2023-02-24T15:34:23.661Z,18.90
2023-02-24T15:37:01.707Z,17.60
2023-02-24T15:39:37.356Z,16.40
2023-02-24T15:42:22.772Z,16.10
2023-02-24T15:44:59.011Z,22.10
2023-02-24T15:47:44.520Z,19.50
2023-02-24T15:50:19.879Z,20.20
2023-02-24T15:52:54.295Z,18.00
2023-02-24T15:55:30.669Z,19.90
2023-02-24T15:58:07.172Z,18.10
2023-02-24T16:00:41.564Z,15.70
2023-02-24T16:03:17.449Z,15.60
2023-02-24T16:05:52.710Z,16.70
2023-02-24T16:08:26.919Z,14.20
2023-02-24T16:11:02.485Z,15.20
2023-02-24T16:13:37.245Z,15.60
2023-02-24T16:16:15.179Z,18.10
2023-02-24T16:18:50.035Z,16.10
2023-02-24T16:21:24.628Z,16.10
2023-02-24T16:23:59.384Z,15.30
2023-02-24T16:26:38.043Z,16.70
2023-02-24T16:29:22.178Z,16.10
2023-02-24T16:31:59.177Z,17.90
2023-02-24T16:34:33.701Z,17.30
2023-02-24T16:37:19.748Z,19.00
2023-02-24T16:39:54.279Z,16.20
2023-02-24T16:42:29.129Z,17.40
2023-02-24T16:45:03.792Z,17.30
2023-02-24T16:47:39.649Z,13.90
2023-02-24T16:50:24.729Z,18.10
2023-02-24T16:52:59.207Z,15.40
2023-02-24T16:55:34.947Z,17.10
2023-02-24T16:58:10.225Z,15.80
2023-02-24T17:00:46.203Z,18.50
2023-02-24T17:03:25.341Z,19.50
2023-02-24T17:05:59.846Z,21.00
2023-02-24T17:08:35.322Z,17.90
2023-02-24T17:11:13.769Z,15.80
2023-02-24T17:13:49.737Z,15.20
2023-02-24T17:16:25.416Z,18.00
2023-02-24T17:19:00.433Z,18.50
2023-02-24T17:21:35.078Z,14.60
2023-02-24T17:24:15.706Z,14.80
2023-02-24T17:26:50.456Z,16.10
2023-02-24T17:29:29.378Z,19.90
2023-02-24T17:32:04.343Z,17.30
2023-02-24T17:34:39.475Z,19.90
2023-02-24T17:37:14.316Z,23.50
2023-02-24T17:39:52.422Z,16.70
2023-02-24T17:42:34.186Z,17.60
2023-02-24T17:45:10.596Z,19.20
2023-02-24T17:47:45.788Z,18.10
2023-02-24T17:50:22.066Z,20.10
2023-02-24T17:52:58.435Z,18.20
2023-02-24T17:55:34.153Z,19.60
2023-02-24T17:58:10.796Z,20.90
2023-02-24T18:00:47.655Z,15.50
2023-02-24T18:03:39.822Z,17.20
2023-02-24T18:06:15.223Z,19.00
2023-02-24T18:08:50.943Z,15.70
2023-02-24T18:11:26.757Z,16.30
2023-02-24T18:14:03.302Z,17.10
2023-02-24T18:16:39.649Z,16.20
2023-02-24T18:19:15.539Z,17.80
2023-02-24T18:21:50.533Z,21.60
2023-02-24T18:24:25.312Z,16.40
2023-02-24T18:27:00.913Z,16.50
2023-02-24T18:29:37.493Z,18.30
2023-02-24T18:32:14.670Z,20.80
2023-02-24T18:34:51.952Z,17.70
2023-02-24T18:37:28.847Z,19.50
2023-02-24T18:40:10.582Z,19.90
2023-02-24T18:42:50.840Z,19.80
2023-02-24T18:45:26.816Z,22.40
2023-02-24T18:48:19.003Z,23.10
2023-02-24T18:50:57.714Z,21.00
2023-02-24T18:53:37.819Z,22.80
2023-02-24T18:56:19.000Z,29.20
2023-02-24T18:58:57.362Z,32.30
2023-02-24T19:01:41.553Z,25.30
2023-02-24T19:04:20.066Z,27.20
2023-02-24T19:06:55.778Z,25.70
2023-02-24T19:09:35.906Z,23.20
2023-02-24T19:12:12.225Z,22.70
2023-02-24T19:14:49.030Z,25.60
2023-02-24T19:17:26.224Z,22.70
2023-02-24T19:20:06.079Z,24.50
2023-02-24T19:22:47.744Z,26.60
2023-02-24T19:25:25.907Z,31.90
2023-02-24T19:28:02.907Z,30.10
2023-02-24T19:30:42.642Z,32.60
2023-02-24T19:33:19.027Z,30.00
2023-02-24T19:35:55.017Z,27.60
2023-02-24T19:38:32.005Z,28.70
2023-02-24T19:41:08.986Z,32.50
2023-02-24T19:43:47.054Z,32.40
2023-02-24T19:46:25.440Z,31.10
2023-02-24T19:49:02.432Z,42.50
2023-02-24T19:51:40.396Z,31.20
2023-02-24T19:54:17.390Z,29.10
2023-02-24T19:56:57.775Z,33.20
2023-02-24T19:59:34.502Z,30.30
2023-02-24T20:02:30.425Z,31.00
2023-02-24T20:05:08.363Z,32.50
2023-02-24T20:07:44.755Z,33.60
2023-02-24T20:10:25.626Z,31.40
2023-02-24T20:13:01.946Z,37.50
2023-02-24T20:15:43.907Z,34.70
2023-02-24T20:18:23.463Z,38.80
2023-02-24T20:21:04.833Z,34.70
2023-02-24T20:23:42.956Z,43.00
2023-02-24T20:26:20.512Z,37.90
2023-02-24T20:29:01.948Z,43.20
2023-02-24T20:31:39.251Z,37.70
2023-02-24T20:34:32.529Z,38.70
2023-02-24T20:37:10.269Z,39.50
2023-02-24T20:39:49.583Z,34.00
2023-02-24T20:42:27.626Z,38.00
2023-02-24T20:45:04.160Z,37.00
2023-02-24T20:47:41.756Z,40.90
2023-02-24T20:50:37.864Z,35.60
2023-02-24T20:53:14.965Z,34.40
2023-02-24T20:55:51.401Z,33.50
2023-02-24T20:58:28.329Z,31.10
2023-02-24T21:01:03.935Z,38.60
2023-02-24T21:03:38.764Z,33.70
2023-02-24T21:06:18.854Z,36.00
2023-02-24T21:08:55.705Z,29.20
2023-02-24T21:11:32.290Z,30.00
2023-02-24T21:14:07.877Z,34.60
2023-02-24T21:16:43.048Z,35.00
2023-02-24T21:19:20.567Z,32.20
2023-02-24T21:21:55.416Z,33.30
2023-02-24T21:24:30.793Z,31.50
2023-02-24T21:27:05.753Z,30.50
2023-02-24T21:29:39.902Z,33.00
2023-02-24T21:32:18.370Z,32.90
2023-02-24T21:37:25.059Z,30.50
2023-02-24T21:40:00.230Z,31.50
2023-02-24T21:42:34.443Z,29.90
2023-02-24T21:45:10.700Z,32.40
2023-02-24T21:47:44.759Z,29.60
2023-02-24T21:50:19.639Z,33.70
2023-02-24T21:52:56.292Z,32.10
2023-02-24T21:55:29.922Z,29.70
2023-02-24T21:58:04.457Z,29.00
2023-02-24T22:00:39.725Z,29.20
2023-02-24T22:03:17.137Z,26.60
2023-02-24T22:05:54.288Z,28.40
2023-02-24T22:08:28.474Z,31.20
2023-02-24T22:11:03.600Z,27.90
2023-02-24T22:13:37.939Z,31.10
2023-02-24T22:16:14.260Z,34.50
2023-02-24T22:18:48.303Z,30.10
2023-02-24T22:21:23.627Z,33.60
2023-02-24T22:23:58.590Z,30.80
2023-02-24T22:26:33.492Z,33.10
2023-02-24T22:29:07.795Z,39.80
2023-02-24T22:31:44.218Z,34.50
2023-02-24T22:34:17.895Z,38.30
2023-02-24T22:36:51.653Z,37.10
2023-02-24T22:39:25.085Z,32.20
2023-02-24T22:41:58.990Z,30.30
2023-02-24T22:44:32.219Z,32.30
2023-02-24T22:47:06.934Z,31.50
2023-02-24T22:49:40.931Z,29.40
2023-02-24T22:52:17.308Z,30.80
2023-02-24T22:54:53.123Z,28.40
2023-02-24T22:57:27.424Z,25.60
2023-02-24T23:00:01.521Z,30.30
2023-02-24T23:02:35.404Z,25.60
2023-02-24T23:05:10.050Z,30.20
2023-02-24T23:07:44.539Z,25.50
2023-02-24T23:10:18.784Z,31.00
2023-02-24T23:12:53.300Z,26.70
2023-02-24T23:15:27.326Z,29.60
2023-02-24T23:18:02.869Z,29.70
2023-02-24T23:20:36.585Z,23.80
2023-02-24T23:23:10.900Z,25.20
2023-02-24T23:25:51.577Z,26.90
2023-02-24T23:28:26.337Z,28.20
2023-02-24T23:31:00.291Z,30.90
2023-02-24T23:33:34.702Z,26.00
2023-02-24T23:36:10.306Z,33.80
2023-02-24T23:38:43.824Z,24.30
2023-02-24T23:41:17.872Z,30.00
2023-02-24T23:43:51.226Z,27.20
2023-02-24T23:46:25.225Z,23.10
2023-02-24T23:48:59.894Z,25.70
2023-02-24T23:51:47.579Z,25.20
2023-02-24T23:54:22.404Z,24.40
2023-02-24T23:56:57.216Z,26.00
2023-02-24T23:59:31.001Z,23.20
